createdAt,value
2022-10-22T00:00:20.940Z,0.00
2022-10-22T00:01:17.961Z,0.00
2022-10-22T00:02:17.979Z,0.00
2022-10-22T00:03:17.899Z,0.00
2022-10-22T00:04:17.899Z,0.00
2022-10-22T00:05:17.891Z,0.00
2022-10-22T00:06:18.000Z,0.00
2022-10-22T00:07:17.861Z,0.00
2022-10-22T00:08:17.853Z,0.00
2022-10-22T00:09:17.875Z,0.00
2022-10-22T00:10:17.874Z,0.00
2022-10-22T00:11:17.820Z,0.00
2022-10-22T00:12:17.842Z,0.00
2022-10-22T00:13:17.816Z,0.00
2022-10-22T00:14:17.792Z,0.00
2022-10-22T00:15:20.805Z,0.00
2022-10-22T00:16:17.781Z,0.00
2022-10-22T00:17:17.755Z,0.00
2022-10-22T00:18:17.758Z,0.00
2022-10-22T00:19:17.754Z,0.00
2022-10-22T00:20:17.737Z,0.00
2022-10-22T00:21:17.716Z,0.00
2022-10-22T00:22:17.715Z,0.00
2022-10-22T00:23:17.705Z,0.00
2022-10-22T00:24:17.727Z,0.00
2022-10-22T00:25:17.683Z,0.00
2022-10-22T00:26:17.666Z,0.00
2022-10-22T00:27:17.645Z,0.00
2022-10-22T00:28:17.684Z,0.00
2022-10-22T00:29:17.637Z,0.00
2022-10-22T00:30:20.648Z,0.00
2022-10-22T00:31:17.617Z,0.00
2022-10-22T00:32:17.606Z,0.00
2022-10-22T00:33:17.588Z,0.00
2022-10-22T00:34:17.586Z,0.00
2022-10-22T00:35:17.623Z,0.00
2022-10-22T00:36:17.590Z,0.00
2022-10-22T00:37:17.599Z,0.00
2022-10-22T00:38:17.548Z,0.00
2022-10-22T00:39:17.539Z,0.00
2022-10-22T00:40:17.522Z,0.00
2022-10-22T00:41:17.513Z,0.00
2022-10-22T00:42:17.500Z,0.00
2022-10-22T00:43:17.492Z,0.00
2022-10-22T00:44:17.480Z,0.00
2022-10-22T00:45:20.470Z,0.00
2022-10-22T00:46:17.473Z,0.00
2022-10-22T00:47:17.450Z,0.00
2022-10-22T00:48:17.476Z,0.00
2022-10-22T00:49:17.436Z,0.00
2022-10-22T00:50:17.416Z,0.00
2022-10-22T00:51:17.404Z,0.00
2022-10-22T00:52:17.401Z,0.00
2022-10-22T00:53:17.385Z,0.00
2022-10-22T00:54:17.372Z,0.00
2022-10-22T00:55:17.363Z,0.00
2022-10-22T00:56:17.353Z,0.00
2022-10-22T00:57:17.344Z,0.00
2022-10-22T00:58:17.335Z,0.00
2022-10-22T00:59:17.362Z,0.00
2022-10-22T01:00:20.322Z,0.00
2022-10-22T01:01:17.352Z,0.00
2022-10-22T01:02:17.294Z,0.00
2022-10-22T01:03:17.289Z,0.00
2022-10-22T01:04:17.259Z,0.00
2022-10-22T01:05:17.272Z,0.00
2022-10-22T01:06:17.254Z,0.00
2022-10-22T01:07:17.245Z,0.00
2022-10-22T01:08:17.231Z,0.00
2022-10-22T01:09:17.217Z,0.00
2022-10-22T01:10:17.231Z,0.00
2022-10-22T01:11:17.188Z,0.00
2022-10-22T01:12:17.189Z,0.00
2022-10-22T01:13:17.193Z,0.00
2022-10-22T01:14:17.169Z,0.00
2022-10-22T01:15:20.261Z,0.00
2022-10-22T01:16:17.172Z,0.00
2022-10-22T01:17:17.231Z,0.00
2022-10-22T01:18:17.147Z,0.00
2022-10-22T01:19:17.125Z,0.00
2022-10-22T01:20:17.102Z,0.00
2022-10-22T01:21:17.094Z,0.00
2022-10-22T01:22:17.089Z,0.00
2022-10-22T01:23:17.086Z,0.00
2022-10-22T01:24:17.073Z,0.00
2022-10-22T01:25:17.051Z,0.00
2022-10-22T01:26:17.104Z,0.00
2022-10-22T01:27:17.032Z,0.00
2022-10-22T01:28:17.055Z,0.00
2022-10-22T01:29:17.016Z,0.00
2022-10-22T01:30:20.005Z,0.00
2022-10-22T01:31:17.014Z,0.00
2022-10-22T01:32:16.981Z,0.00
2022-10-22T01:33:16.984Z,0.00
2022-10-22T01:34:16.957Z,0.00
2022-10-22T01:35:16.948Z,0.00
2022-10-22T01:36:16.936Z,0.00
2022-10-22T01:37:16.930Z,0.00
2022-10-22T01:38:16.922Z,0.00
2022-10-22T01:39:17.016Z,0.00
2022-10-22T01:40:16.919Z,0.00
2022-10-22T01:41:16.928Z,0.00
2022-10-22T01:42:16.947Z,0.00
2022-10-22T01:43:16.870Z,0.00
2022-10-22T01:44:16.858Z,0.00
2022-10-22T01:45:19.847Z,0.00
2022-10-22T01:46:16.854Z,0.00
2022-10-22T01:47:16.818Z,0.00
2022-10-22T01:48:16.817Z,0.00
2022-10-22T01:49:16.802Z,0.00
2022-10-22T01:50:16.800Z,0.00
2022-10-22T01:51:16.781Z,0.00
2022-10-22T01:52:16.870Z,0.00
2022-10-22T01:53:16.760Z,0.00
2022-10-22T01:54:16.769Z,0.00
2022-10-22T01:55:16.745Z,0.00
2022-10-22T01:56:16.734Z,0.00
2022-10-22T01:57:16.720Z,0.00
2022-10-22T01:58:16.712Z,0.00
2022-10-22T01:59:16.715Z,0.00
2022-10-22T02:00:19.712Z,0.00
2022-10-22T02:01:16.694Z,0.00
2022-10-22T02:02:16.671Z,0.00
2022-10-22T02:03:18.711Z,0.00
2022-10-22T02:04:16.693Z,0.00
2022-10-22T02:05:16.634Z,0.00
2022-10-22T02:06:16.636Z,0.00
2022-10-22T02:07:16.615Z,0.00
2022-10-22T02:08:16.611Z,0.00
2022-10-22T02:09:16.644Z,0.00
2022-10-22T02:10:16.590Z,0.00
2022-10-22T02:11:16.580Z,0.00
2022-10-22T02:12:16.558Z,0.00
2022-10-22T02:13:16.548Z,0.00
2022-10-22T02:14:16.550Z,0.00
2022-10-22T02:15:19.548Z,0.00
2022-10-22T02:16:16.538Z,0.00
2022-10-22T02:17:16.508Z,0.00
2022-10-22T02:18:16.518Z,0.00
2022-10-22T02:19:16.499Z,0.00
2022-10-22T02:20:16.491Z,0.00
2022-10-22T02:21:16.469Z,0.00
2022-10-22T02:22:16.461Z,0.00
2022-10-22T02:23:16.514Z,0.00
2022-10-22T02:24:16.439Z,0.00
2022-10-22T02:25:16.426Z,0.00
2022-10-22T02:26:16.422Z,0.00
2022-10-22T02:27:16.413Z,0.00
2022-10-22T02:28:16.393Z,0.00
2022-10-22T02:29:16.390Z,0.00
2022-10-22T02:30:19.377Z,0.00
2022-10-22T02:31:16.385Z,0.00
2022-10-22T02:32:16.361Z,0.00
2022-10-22T02:33:16.374Z,0.00
2022-10-22T02:34:16.341Z,0.00
2022-10-22T02:35:16.323Z,0.00
2022-10-22T02:36:16.346Z,0.00
2022-10-22T02:37:16.304Z,0.00
2022-10-22T02:38:16.295Z,0.00
2022-10-22T02:40:16.274Z,0.00
2022-10-22T02:41:16.261Z,0.00
2022-10-22T02:42:16.255Z,0.00
2022-10-22T02:43:16.234Z,0.00
2022-10-22T02:44:16.233Z,0.00
2022-10-22T02:45:19.227Z,0.00
2022-10-22T02:46:16.225Z,0.00
2022-10-22T02:47:16.328Z,0.00
2022-10-22T02:48:16.242Z,0.00
2022-10-22T02:49:16.178Z,0.00
2022-10-22T02:50:16.178Z,0.00
2022-10-22T02:51:16.158Z,0.00
2022-10-22T02:52:16.138Z,0.00
2022-10-22T02:53:16.169Z,0.00
2022-10-22T02:54:16.130Z,0.00
2022-10-22T02:55:16.118Z,0.00
2022-10-22T02:56:16.124Z,0.00
2022-10-22T02:57:16.135Z,0.00
2022-10-22T02:58:16.111Z,0.00
2022-10-22T02:59:16.072Z,0.00
2022-10-22T03:00:19.166Z,0.00
2022-10-22T03:01:16.332Z,0.00
2022-10-22T03:02:16.052Z,0.00
2022-10-22T03:03:16.041Z,0.00
2022-10-22T03:04:16.021Z,0.00
2022-10-22T03:05:16.028Z,0.00
2022-10-22T03:06:16.047Z,0.00
2022-10-22T03:07:15.998Z,0.00
2022-10-22T03:08:16.124Z,0.00
2022-10-22T03:09:15.986Z,0.00
2022-10-22T03:10:15.965Z,0.00
2022-10-22T03:11:15.958Z,0.00
2022-10-22T03:12:15.973Z,0.00
2022-10-22T03:13:15.925Z,0.00
2022-10-22T03:14:15.916Z,0.00
2022-10-22T03:15:18.987Z,0.00
2022-10-22T03:16:15.915Z,0.00
2022-10-22T03:17:15.905Z,0.00
2022-10-22T03:18:15.876Z,0.00
2022-10-22T03:19:15.869Z,0.00
2022-10-22T03:20:15.856Z,0.00
2022-10-22T03:21:15.847Z,0.00
2022-10-22T03:22:15.839Z,0.00
2022-10-22T03:23:15.827Z,0.00
2022-10-22T03:24:15.820Z,0.00
2022-10-22T03:25:15.813Z,0.00
2022-10-22T03:26:15.801Z,0.00
2022-10-22T03:27:15.776Z,0.00
2022-10-22T03:28:15.800Z,0.00
2022-10-22T03:29:15.763Z,0.00
2022-10-22T03:30:18.767Z,0.00
2022-10-22T03:31:15.758Z,0.00
2022-10-22T03:32:15.729Z,0.00
2022-10-22T03:33:15.721Z,0.00
2022-10-22T03:34:15.710Z,0.00
2022-10-22T03:35:15.813Z,0.00
2022-10-22T03:36:15.690Z,0.00
2022-10-22T03:37:15.729Z,0.00
2022-10-22T03:38:15.685Z,0.00
2022-10-22T03:39:15.662Z,0.00
2022-10-22T03:40:15.655Z,0.00
2022-10-22T03:41:15.645Z,0.00
2022-10-22T03:42:15.632Z,0.00
2022-10-22T03:43:15.622Z,0.00
2022-10-22T03:44:15.605Z,0.00
2022-10-22T03:45:18.654Z,0.00
2022-10-22T03:46:15.602Z,0.00
2022-10-22T03:47:15.576Z,0.00
2022-10-22T03:48:15.565Z,0.00
2022-10-22T03:49:15.553Z,0.00
2022-10-22T03:50:15.545Z,0.00
2022-10-22T03:51:15.531Z,0.00
2022-10-22T03:52:15.523Z,0.00
2022-10-22T03:53:15.507Z,0.00
2022-10-22T03:54:15.517Z,0.00
2022-10-22T03:55:15.500Z,0.00
2022-10-22T03:56:15.485Z,0.00
2022-10-22T03:57:15.498Z,0.00
2022-10-22T03:58:15.465Z,0.00
2022-10-22T03:59:15.449Z,0.00
2022-10-22T04:00:18.550Z,0.00
2022-10-22T04:01:15.483Z,0.00
2022-10-22T04:02:15.428Z,0.00
2022-10-22T04:03:15.410Z,0.00
2022-10-22T04:04:15.397Z,0.00
2022-10-22T04:05:15.395Z,0.00
2022-10-22T04:06:15.382Z,0.00
2022-10-22T04:07:15.359Z,0.00
2022-10-22T04:08:15.360Z,0.00
2022-10-22T04:09:15.405Z,0.00
2022-10-22T04:10:15.342Z,0.00
2022-10-22T04:11:15.363Z,0.00
2022-10-22T04:12:15.321Z,0.00
2022-10-22T04:13:15.304Z,0.00
2022-10-22T04:14:15.291Z,0.00
2022-10-22T04:15:18.293Z,0.00
2022-10-22T04:16:15.298Z,0.00
2022-10-22T04:17:15.278Z,0.00
2022-10-22T04:18:15.263Z,0.00
2022-10-22T04:19:15.244Z,0.00
2022-10-22T04:20:15.254Z,0.00
2022-10-22T04:21:15.225Z,0.00
2022-10-22T04:22:15.251Z,0.00
2022-10-22T04:23:15.196Z,0.00
2022-10-22T04:24:15.185Z,0.00
2022-10-22T04:25:15.186Z,0.00
2022-10-22T04:26:15.172Z,0.00
2022-10-22T04:27:15.167Z,0.00
2022-10-22T04:28:15.144Z,0.00
2022-10-22T04:29:16.289Z,0.00
2022-10-22T04:30:18.131Z,0.00
2022-10-22T04:31:15.137Z,0.00
2022-10-22T04:32:15.115Z,0.00
2022-10-22T04:33:15.118Z,0.00
2022-10-22T04:34:15.099Z,0.00
2022-10-22T04:35:15.115Z,0.00
2022-10-22T04:36:15.078Z,0.00
2022-10-22T04:37:15.156Z,0.00
2022-10-22T04:38:15.050Z,0.00
2022-10-22T04:39:15.033Z,0.00
2022-10-22T04:40:15.030Z,0.00
2022-10-22T04:41:15.019Z,0.00
2022-10-22T04:42:15.021Z,0.00
2022-10-22T04:43:14.991Z,0.00
2022-10-22T04:44:17.170Z,0.00
2022-10-22T04:45:17.968Z,0.00
2022-10-22T04:46:14.985Z,0.00
2022-10-22T04:47:14.985Z,0.00
2022-10-22T04:48:14.942Z,0.00
2022-10-22T04:49:14.938Z,0.00
2022-10-22T04:50:14.934Z,0.00
2022-10-22T04:51:14.911Z,0.00
2022-10-22T04:52:14.924Z,0.00
2022-10-22T04:53:14.894Z,0.00
2022-10-22T04:54:15.170Z,0.00
2022-10-22T04:55:14.871Z,0.00
2022-10-22T04:56:14.863Z,0.00
2022-10-22T04:57:14.849Z,0.00
2022-10-22T04:58:14.841Z,0.00
2022-10-22T04:59:14.824Z,0.00
2022-10-22T05:00:17.816Z,0.00
2022-10-22T05:01:14.856Z,0.00
2022-10-22T05:02:14.800Z,0.00
2022-10-22T05:03:14.786Z,0.00
2022-10-22T05:04:14.786Z,0.00
2022-10-22T05:05:14.776Z,0.00
2022-10-22T05:06:14.855Z,0.00
2022-10-22T05:07:14.746Z,0.00
2022-10-22T05:08:14.740Z,0.00
2022-10-22T05:09:14.896Z,0.00
2022-10-22T05:10:14.730Z,0.00
2022-10-22T05:11:14.706Z,0.00
2022-10-22T05:12:14.750Z,0.00
2022-10-22T05:13:14.680Z,0.00
2022-10-22T05:14:14.685Z,0.00
2022-10-22T05:15:17.778Z,0.00
2022-10-22T05:16:14.682Z,0.00
2022-10-22T05:17:14.655Z,0.00
2022-10-22T05:18:16.821Z,0.00
2022-10-22T05:19:14.631Z,0.00
2022-10-22T05:20:14.633Z,0.00
2022-10-22T05:21:14.600Z,0.00
2022-10-22T05:22:14.584Z,0.00
2022-10-22T05:23:14.601Z,0.00
2022-10-22T05:24:14.574Z,0.00
2022-10-22T05:25:14.594Z,0.00
2022-10-22T05:26:14.572Z,0.00
2022-10-22T05:27:14.634Z,0.00
2022-10-22T05:28:14.500Z,0.00
2022-10-22T05:29:14.464Z,0.00
2022-10-22T05:30:17.510Z,0.00
2022-10-22T05:31:14.536Z,0.00
2022-10-22T05:32:14.454Z,0.00
2022-10-22T05:33:14.427Z,0.00
2022-10-22T05:34:14.465Z,0.00
2022-10-22T05:35:14.414Z,0.00
2022-10-22T05:36:14.397Z,0.00
2022-10-22T05:37:14.383Z,0.00
2022-10-22T05:38:14.377Z,0.00
2022-10-22T05:39:14.355Z,0.00
2022-10-22T05:40:26.463Z,0.00
2022-10-22T05:41:15.345Z,0.00
2022-10-22T05:42:14.361Z,0.00
2022-10-22T05:43:14.322Z,0.00
2022-10-22T05:44:14.308Z,0.00
2022-10-22T05:45:17.298Z,0.00
2022-10-22T05:46:17.568Z,0.00
2022-10-22T05:47:14.300Z,0.00
2022-10-22T05:48:14.267Z,0.00
2022-10-22T05:49:14.276Z,0.00
2022-10-22T05:50:14.248Z,0.00
2022-10-22T05:51:14.236Z,0.00
2022-10-22T05:52:14.232Z,0.00
2022-10-22T05:53:14.214Z,0.00
2022-10-22T05:54:14.220Z,0.00
2022-10-22T05:55:14.189Z,0.00
2022-10-22T05:56:14.191Z,0.00
2022-10-22T05:57:14.172Z,0.00
2022-10-22T05:58:14.159Z,0.00
2022-10-22T05:59:14.150Z,0.00
2022-10-22T06:00:17.152Z,5.62
2022-10-22T06:01:14.154Z,5.62
2022-10-22T06:02:14.208Z,5.62
2022-10-22T06:03:14.113Z,5.62
2022-10-22T06:04:14.110Z,5.62
2022-10-22T06:05:14.096Z,5.62
2022-10-22T06:06:14.073Z,5.62
2022-10-22T06:07:14.072Z,5.62
2022-10-22T06:08:18.217Z,5.62
2022-10-22T06:09:14.092Z,11.25
2022-10-22T06:10:14.042Z,11.25
2022-10-22T06:11:14.022Z,11.25
2022-10-22T06:12:14.010Z,11.25
2022-10-22T06:13:14.126Z,11.25
2022-10-22T06:14:14.005Z,16.88
2022-10-22T06:15:16.991Z,16.88
2022-10-22T06:16:13.995Z,16.88
2022-10-22T06:17:13.958Z,16.88
2022-10-22T06:18:13.958Z,16.88
2022-10-22T06:19:13.966Z,16.88
2022-10-22T06:20:13.937Z,16.88
2022-10-22T06:21:13.925Z,16.88
2022-10-22T06:22:13.919Z,16.88
2022-10-22T06:23:13.899Z,22.50
2022-10-22T06:24:13.907Z,22.50
2022-10-22T06:25:13.881Z,22.50
2022-10-22T06:26:13.877Z,28.12
2022-10-22T06:27:13.880Z,28.12
2022-10-22T06:28:13.906Z,28.12
2022-10-22T06:29:13.841Z,28.12
2022-10-22T06:30:17.780Z,28.12
2022-10-22T06:31:13.831Z,22.50
2022-10-22T06:32:13.834Z,22.50
2022-10-22T06:33:13.799Z,22.50
2022-10-22T06:34:13.831Z,28.12
2022-10-22T06:35:13.781Z,28.12
2022-10-22T06:36:13.763Z,33.75
2022-10-22T06:37:13.754Z,39.38
2022-10-22T06:38:13.737Z,45.00
2022-10-22T06:39:13.747Z,50.62
2022-10-22T06:40:13.744Z,56.25
2022-10-22T06:41:13.712Z,56.25
2022-10-22T06:42:13.701Z,56.25
2022-10-22T06:43:13.693Z,61.88
2022-10-22T06:44:13.698Z,67.50
2022-10-22T06:45:16.692Z,73.12
2022-10-22T06:46:16.103Z,84.38
2022-10-22T06:47:13.645Z,90.00
2022-10-22T06:48:13.637Z,95.62
2022-10-22T06:49:13.659Z,101.25
2022-10-22T06:50:13.623Z,106.88
2022-10-22T06:51:13.606Z,106.88
2022-10-22T06:52:13.597Z,118.12
2022-10-22T06:53:13.635Z,129.38
2022-10-22T06:54:13.608Z,135.00
2022-10-22T06:55:13.568Z,140.62
2022-10-22T06:56:13.563Z,140.62
2022-10-22T06:57:13.549Z,135.00
2022-10-22T06:58:13.538Z,135.00
2022-10-22T06:59:13.634Z,135.00
2022-10-22T07:00:16.521Z,140.62
2022-10-22T07:01:13.636Z,146.25
2022-10-22T07:02:13.500Z,151.88
2022-10-22T07:03:13.501Z,157.50
2022-10-22T07:04:13.472Z,163.12
2022-10-22T07:05:13.469Z,168.75
2022-10-22T07:06:13.449Z,180.00
2022-10-22T07:07:13.454Z,185.62
2022-10-22T07:08:13.428Z,191.25
2022-10-22T07:09:13.595Z,191.25
2022-10-22T07:10:13.412Z,191.25
2022-10-22T07:11:13.410Z,191.25
2022-10-22T07:12:13.414Z,196.88
2022-10-22T07:13:13.383Z,202.50
2022-10-22T07:14:13.375Z,208.12
2022-10-22T07:15:16.368Z,225.00
2022-10-22T07:16:13.371Z,236.25
2022-10-22T07:17:13.343Z,253.12
2022-10-22T07:18:13.341Z,270.00
2022-10-22T07:19:13.323Z,286.88
2022-10-22T07:20:13.314Z,303.75
2022-10-22T07:21:13.296Z,309.38
2022-10-22T07:22:13.286Z,320.62
2022-10-22T07:23:13.274Z,320.62
2022-10-22T07:24:13.285Z,320.62
2022-10-22T07:25:13.257Z,315.00
2022-10-22T07:26:13.246Z,315.00
2022-10-22T07:27:13.242Z,326.25
2022-10-22T07:28:13.242Z,315.00
2022-10-22T07:29:13.246Z,315.00
2022-10-22T07:30:16.217Z,320.62
2022-10-22T07:31:13.219Z,326.25
2022-10-22T07:32:13.204Z,354.38
2022-10-22T07:33:13.169Z,365.62
2022-10-22T07:34:13.240Z,348.75
2022-10-22T07:35:13.159Z,371.25
2022-10-22T07:36:13.142Z,382.50
2022-10-22T07:37:13.128Z,663.75
2022-10-22T07:38:13.118Z,506.25
2022-10-22T07:39:13.130Z,703.12
2022-10-22T07:40:13.110Z,466.88
2022-10-22T07:41:13.105Z,540.00
2022-10-22T07:42:13.077Z,556.88
2022-10-22T07:43:13.075Z,495.00
2022-10-22T07:44:13.070Z,511.88
2022-10-22T07:45:16.054Z,511.88
2022-10-22T07:46:13.093Z,517.50
2022-10-22T07:47:13.031Z,528.75
2022-10-22T07:48:13.018Z,765.00
2022-10-22T07:49:13.000Z,1001.25
2022-10-22T07:50:13.004Z,787.50
2022-10-22T07:51:13.021Z,1063.12
2022-10-22T07:52:12.976Z,686.25
2022-10-22T07:53:12.974Z,787.50
2022-10-22T07:54:12.979Z,483.75
2022-10-22T07:55:12.942Z,455.62
2022-10-22T07:56:12.936Z,410.62
2022-10-22T07:57:12.926Z,405.00
2022-10-22T07:58:12.916Z,388.12
2022-10-22T07:59:12.918Z,399.38
2022-10-22T08:00:15.898Z,933.75
2022-10-22T08:01:12.999Z,691.88
2022-10-22T08:02:12.874Z,843.75
2022-10-22T08:03:12.868Z,815.62
2022-10-22T08:04:12.846Z,798.75
2022-10-22T08:05:12.850Z,770.62
2022-10-22T08:06:12.832Z,826.88
2022-10-22T08:07:12.826Z,1040.62
2022-10-22T08:09:12.892Z,1102.50
2022-10-22T08:10:12.796Z,1175.62
2022-10-22T08:11:12.777Z,1226.25
2022-10-22T08:12:12.768Z,1186.88
2022-10-22T08:13:12.780Z,635.62
2022-10-22T08:14:12.742Z,562.50
2022-10-22T08:15:15.739Z,1321.88
2022-10-22T08:16:12.742Z,1310.62
2022-10-22T08:17:12.716Z,1203.75
2022-10-22T08:18:12.714Z,1321.88
2022-10-22T08:19:12.701Z,1333.12
2022-10-22T08:20:12.691Z,961.88
2022-10-22T08:22:12.665Z,1406.25
2022-10-22T08:23:12.694Z,1299.38
2022-10-22T08:24:12.756Z,894.38
2022-10-22T08:25:12.637Z,1198.12
2022-10-22T08:26:12.622Z,1125.00
2022-10-22T08:27:12.617Z,1130.62
2022-10-22T08:28:12.944Z,1395.00
2022-10-22T08:29:12.590Z,1440.00
2022-10-22T08:30:15.623Z,1372.50
2022-10-22T08:31:12.585Z,770.62
2022-10-22T08:32:12.564Z,680.62
2022-10-22T08:33:12.554Z,748.12
2022-10-22T08:34:12.545Z,1018.12
2022-10-22T08:35:14.205Z,1074.38
2022-10-22T08:36:12.513Z,787.50
2022-10-22T08:37:12.509Z,900.00
2022-10-22T08:38:12.517Z,1215.00
2022-10-22T08:39:12.506Z,1175.62
2022-10-22T08:40:12.478Z,860.62
2022-10-22T08:41:12.479Z,776.25
2022-10-22T08:42:12.464Z,731.25
2022-10-22T08:43:12.521Z,714.38
2022-10-22T08:44:12.449Z,787.50
2022-10-22T08:45:15.462Z,708.75
2022-10-22T08:46:12.431Z,736.88
2022-10-22T08:47:12.486Z,838.12
2022-10-22T08:48:12.409Z,753.75
2022-10-22T08:49:12.387Z,860.62
2022-10-22T08:50:12.380Z,765.00
2022-10-22T08:51:12.377Z,815.62
2022-10-22T08:52:12.400Z,961.88
2022-10-22T08:53:12.346Z,855.00
2022-10-22T08:54:12.336Z,866.25
2022-10-22T08:55:12.329Z,871.88
2022-10-22T08:56:12.315Z,883.12
2022-10-22T08:57:12.303Z,1001.25
2022-10-22T08:58:12.295Z,787.50
2022-10-22T08:59:12.278Z,1046.25
2022-10-22T09:00:15.274Z,1113.75
2022-10-22T09:01:12.316Z,1237.50
2022-10-22T09:02:12.251Z,1130.62
2022-10-22T09:03:12.233Z,1080.00
2022-10-22T09:04:12.233Z,1271.25
2022-10-22T09:05:12.378Z,1181.25
2022-10-22T09:06:12.205Z,1361.25
2022-10-22T09:08:12.189Z,1355.62
2022-10-22T09:09:12.215Z,1518.75
2022-10-22T09:10:12.165Z,1580.62
2022-10-22T09:11:12.156Z,1642.50
2022-10-22T09:12:15.300Z,1681.88
2022-10-22T09:13:12.129Z,1704.38
2022-10-22T09:14:12.185Z,1726.88
2022-10-22T09:15:15.131Z,1738.12
2022-10-22T09:16:12.119Z,1726.88
2022-10-22T09:17:12.096Z,1710.00
2022-10-22T09:18:12.079Z,1760.62
2022-10-22T09:19:12.111Z,1828.12
2022-10-22T09:20:12.060Z,1839.38
2022-10-22T09:21:12.040Z,1833.75
2022-10-22T09:23:12.033Z,1749.38
2022-10-22T09:24:12.011Z,1743.75
2022-10-22T09:25:12.044Z,1766.25
2022-10-22T09:26:11.992Z,1777.50
2022-10-22T09:27:11.981Z,1766.25
2022-10-22T09:28:11.984Z,1721.25
2022-10-22T09:29:11.964Z,1726.88
2022-10-22T09:30:15.154Z,1732.50
2022-10-22T09:31:11.956Z,1794.38
2022-10-22T09:32:11.935Z,1884.38
2022-10-22T09:33:11.921Z,1935.00
2022-10-22T09:34:11.903Z,1996.88
2022-10-22T09:35:11.904Z,2036.25
2022-10-22T09:36:11.901Z,2092.50
2022-10-22T09:37:11.872Z,2058.75
2022-10-22T09:38:11.866Z,2064.38
2022-10-22T09:39:11.898Z,1974.38
2022-10-22T09:40:11.858Z,1890.00
2022-10-22T09:41:11.869Z,1845.00
2022-10-22T09:42:11.826Z,1822.50
2022-10-22T09:43:11.830Z,1811.25
2022-10-22T09:44:11.808Z,1811.25
2022-10-22T09:45:14.842Z,1805.62
2022-10-22T09:46:11.800Z,1850.62
2022-10-22T09:47:11.771Z,1901.25
2022-10-22T09:48:11.771Z,1951.88
2022-10-22T09:49:11.761Z,2002.50
2022-10-22T09:50:11.743Z,2025.00
2022-10-22T09:51:11.739Z,2053.12
2022-10-22T09:52:11.721Z,2086.88
2022-10-22T09:53:11.710Z,2148.75
2022-10-22T09:54:11.703Z,2216.25
2022-10-22T09:55:11.699Z,2233.12
2022-10-22T09:56:11.802Z,2205.00
2022-10-22T09:57:11.664Z,2160.00
2022-10-22T09:58:11.660Z,2081.25
2022-10-22T09:59:11.644Z,2025.00
2022-10-22T10:00:14.634Z,2053.12
2022-10-22T10:01:11.684Z,2103.75
2022-10-22T10:02:19.720Z,2148.75
2022-10-22T10:03:12.669Z,2210.62
2022-10-22T10:04:11.623Z,2261.25
2022-10-22T10:05:11.585Z,2295.00
2022-10-22T10:06:11.578Z,2266.88
2022-10-22T10:07:11.569Z,2165.62
2022-10-22T10:08:11.555Z,2103.75
2022-10-22T10:09:11.640Z,2086.88
2022-10-22T10:10:11.536Z,2098.12
2022-10-22T10:11:11.535Z,2148.75
2022-10-22T10:12:11.608Z,2171.25
2022-10-22T10:13:11.519Z,2143.12
2022-10-22T10:14:11.536Z,2131.88
2022-10-22T10:15:14.480Z,2165.62
2022-10-22T10:16:11.525Z,2199.38
2022-10-22T10:17:11.467Z,2199.38
2022-10-22T10:18:11.615Z,2176.88
2022-10-22T10:19:11.442Z,2131.88
2022-10-22T10:20:11.428Z,2103.75
2022-10-22T10:21:11.485Z,2075.62
2022-10-22T10:22:11.421Z,2058.75
2022-10-22T10:23:11.421Z,2081.25
2022-10-22T10:24:11.430Z,2115.00
2022-10-22T10:25:11.371Z,2092.50
2022-10-22T10:26:11.383Z,2070.00
2022-10-22T10:27:11.360Z,2075.62
2022-10-22T10:28:11.354Z,2109.38
2022-10-22T10:29:11.335Z,2131.88
2022-10-22T10:30:14.437Z,2148.75
2022-10-22T10:31:11.343Z,2171.25
2022-10-22T10:32:11.303Z,2154.38
2022-10-22T10:33:11.299Z,2092.50
2022-10-22T10:34:11.275Z,1985.62
2022-10-22T10:35:11.273Z,1940.62
2022-10-22T10:36:11.268Z,1873.12
2022-10-22T10:37:11.260Z,1805.62
2022-10-22T10:38:11.251Z,1777.50
2022-10-22T10:39:11.239Z,1783.12
2022-10-22T10:40:11.227Z,1816.88
2022-10-22T10:41:11.237Z,1906.88
2022-10-22T10:42:11.217Z,1968.75
2022-10-22T10:43:11.222Z,2013.75
2022-10-22T10:44:11.180Z,2092.50
2022-10-22T10:45:14.169Z,2210.62
2022-10-22T10:46:11.198Z,2300.62
2022-10-22T10:47:11.178Z,2362.50
2022-10-22T10:48:11.141Z,2430.00
2022-10-22T10:49:11.131Z,2508.75
2022-10-22T10:50:11.118Z,2525.62
2022-10-22T10:51:11.109Z,2486.25
2022-10-22T10:52:11.090Z,2413.12
2022-10-22T10:53:11.082Z,2368.12
2022-10-22T10:54:11.076Z,2306.25
2022-10-22T10:55:11.062Z,2266.88
2022-10-22T10:56:11.054Z,2227.50
2022-10-22T10:57:11.049Z,2193.75
2022-10-22T10:58:11.059Z,2182.50
2022-10-22T10:59:11.021Z,2244.38
2022-10-22T11:00:14.016Z,2323.12
2022-10-22T11:01:11.025Z,2390.62
2022-10-22T11:02:10.993Z,2373.75
2022-10-22T11:03:10.982Z,2317.50
2022-10-22T11:04:10.965Z,2317.50
2022-10-22T11:05:10.963Z,2340.00
2022-10-22T11:06:10.956Z,2401.88
2022-10-22T11:07:16.908Z,2435.62
2022-10-22T11:08:11.925Z,2475.00
2022-10-22T11:09:11.003Z,528.75
2022-10-22T11:10:10.953Z,1479.38
2022-10-22T11:11:11.009Z,2559.38
2022-10-22T11:12:10.886Z,2553.75
2022-10-22T11:13:10.879Z,2565.00
2022-10-22T11:14:10.909Z,2576.25
2022-10-22T11:15:13.850Z,2570.62
2022-10-22T11:16:10.860Z,2553.75
2022-10-22T11:17:10.839Z,2520.00
2022-10-22T11:18:10.831Z,2295.00
2022-10-22T11:19:11.285Z,2193.75
2022-10-22T11:20:10.845Z,2176.88
2022-10-22T11:21:10.792Z,2250.00
2022-10-22T11:22:11.746Z,2373.75
2022-10-22T11:23:19.684Z,2508.75
2022-10-22T11:24:10.764Z,2621.25
2022-10-22T11:25:10.802Z,2626.88
2022-10-22T11:26:10.742Z,2553.75
2022-10-22T11:27:10.737Z,2581.88
2022-10-22T11:28:11.493Z,2553.75
2022-10-22T11:29:10.710Z,2711.25
2022-10-22T11:30:13.723Z,2463.75
2022-10-22T11:31:10.703Z,2328.75
2022-10-22T11:32:10.699Z,2283.75
2022-10-22T11:33:10.675Z,2289.38
2022-10-22T11:34:32.085Z,2306.25
2022-10-22T11:35:11.645Z,2317.50
2022-10-22T11:36:10.658Z,1749.38
2022-10-22T11:37:10.627Z,2385.00
2022-10-22T11:38:10.615Z,2328.75
2022-10-22T11:39:10.605Z,2041.88
2022-10-22T11:40:10.607Z,2424.38
2022-10-22T11:41:10.617Z,2385.00
2022-10-22T11:42:10.580Z,2418.75
2022-10-22T11:43:10.569Z,2503.12
2022-10-22T11:44:10.558Z,2615.62
2022-10-22T11:45:13.553Z,2626.88
2022-10-22T11:46:10.552Z,2655.00
2022-10-22T11:47:10.528Z,2548.12
2022-10-22T11:48:10.522Z,2531.25
2022-10-22T11:49:10.524Z,2570.62
2022-10-22T11:50:10.493Z,2604.38
2022-10-22T11:51:10.481Z,2626.88
2022-10-22T11:52:10.472Z,2632.50
2022-10-22T11:54:10.475Z,2503.12
2022-10-22T11:55:10.443Z,2435.62
2022-10-22T11:56:10.425Z,2407.50
2022-10-22T11:57:10.424Z,2446.88
2022-10-22T11:58:10.424Z,2508.75
2022-10-22T11:59:10.415Z,2559.38
2022-10-22T12:00:13.390Z,2604.38
2022-10-22T12:01:10.397Z,2649.38
2022-10-22T12:02:10.377Z,1231.88
2022-10-22T12:03:10.365Z,1546.88
2022-10-22T12:04:10.487Z,2542.50
2022-10-22T12:05:10.335Z,2565.00
2022-10-22T12:06:10.326Z,781.88
2022-10-22T12:07:10.346Z,2548.12
2022-10-22T12:08:14.771Z,2458.12
2022-10-22T12:09:10.386Z,2418.75
2022-10-22T12:10:11.489Z,2441.25
2022-10-22T12:11:10.270Z,2070.00
2022-10-22T12:13:10.249Z,1012.50
2022-10-22T12:14:10.253Z,1271.25
2022-10-22T12:15:13.244Z,2261.25
2022-10-22T12:16:12.852Z,2520.00
2022-10-22T12:17:11.209Z,2520.00
2022-10-22T12:18:10.277Z,2480.62
2022-10-22T12:19:10.192Z,2385.00
2022-10-22T12:20:10.180Z,2311.88
2022-10-22T12:21:10.173Z,2244.38
2022-10-22T12:22:10.173Z,2216.25
2022-10-22T12:23:10.187Z,2210.62
2022-10-22T12:24:10.144Z,2289.38
2022-10-22T12:25:10.124Z,2356.88
2022-10-22T12:26:10.162Z,2351.25
2022-10-22T12:27:12.413Z,2266.88
2022-10-22T12:28:11.027Z,2199.38
2022-10-22T12:29:10.088Z,2120.62
2022-10-22T12:30:13.083Z,2092.50
2022-10-22T12:31:10.076Z,1980.00
2022-10-22T12:32:10.050Z,2103.75
2022-10-22T12:33:10.151Z,2019.38
2022-10-22T12:34:10.034Z,2047.50
2022-10-22T12:35:10.021Z,2176.88
2022-10-22T12:36:10.008Z,2306.25
2022-10-22T12:37:10.030Z,2250.00
2022-10-22T12:38:09.981Z,2131.88
2022-10-22T12:39:10.007Z,2041.88
2022-10-22T12:40:09.977Z,2025.00
2022-10-22T12:41:09.961Z,2070.00
2022-10-22T12:42:09.982Z,2098.12
2022-10-22T12:44:09.931Z,2115.00
2022-10-22T12:45:12.920Z,2098.12
2022-10-22T12:46:09.923Z,1333.12
2022-10-22T12:47:09.896Z,2171.25
2022-10-22T12:48:09.914Z,495.00
2022-10-22T12:49:09.872Z,855.00
2022-10-22T12:50:09.861Z,472.50
2022-10-22T12:51:09.855Z,427.50
2022-10-22T12:52:12.153Z,613.12
2022-10-22T12:53:09.860Z,2103.75